createdAt,value
2019-03-17T00:00:33.501Z,76161.45
2019-03-17T00:03:02.700Z,76160.45
2019-03-17T00:05:31.914Z,76145.27
2019-03-17T00:08:01.101Z,76141.22
2019-03-17T00:10:30.286Z,76144.25
2019-03-17T00:12:59.525Z,76146.27
2019-03-17T00:15:28.867Z,76136.16
2019-03-17T00:17:58.060Z,76129.07
2019-03-17T00:20:27.287Z,76144.25
2019-03-17T00:22:56.570Z,76137.17
2019-03-17T00:25:25.760Z,76131.09
2019-03-17T00:27:54.989Z,76138.18
2019-03-17T00:30:26.632Z,76145.27
2019-03-17T00:33:00.741Z,76134.13
2019-03-17T00:35:31.623Z,76130.09
2019-03-17T00:38:00.943Z,76131.09
2019-03-17T00:40:30.181Z,76129.07
2019-03-17T00:42:59.370Z,76119.97
2019-03-17T00:45:28.537Z,76120.98
2019-03-17T00:47:57.818Z,76129.07
2019-03-17T00:50:27.002Z,76120.98
2019-03-17T00:52:56.215Z,76124.02
2019-03-17T00:55:25.402Z,76123.00
2019-03-17T00:57:54.631Z,76120.98
2019-03-17T01:00:23.876Z,76118.95
2019-03-17T01:02:53.058Z,76112.88
2019-03-17T01:05:22.568Z,76112.88
2019-03-17T01:07:52.078Z,76111.87
2019-03-17T01:10:21.274Z,76119.97
2019-03-17T01:12:50.465Z,76116.92
2019-03-17T01:15:19.753Z,76106.81
2019-03-17T01:17:49.020Z,76109.84
2019-03-17T01:20:18.283Z,76104.78
2019-03-17T01:22:47.460Z,76096.69
2019-03-17T01:25:16.646Z,76101.75
2019-03-17T01:27:46.054Z,76096.69
2019-03-17T01:30:16.180Z,76084.55
2019-03-17T01:32:45.332Z,76077.46
2019-03-17T01:35:16.905Z,76076.45
2019-03-17T01:37:46.046Z,76084.55
2019-03-17T01:40:15.520Z,76089.61
2019-03-17T01:42:44.793Z,76094.66
2019-03-17T01:45:13.960Z,76095.67
2019-03-17T01:47:43.367Z,76098.71
2019-03-17T01:50:12.584Z,76100.73
2019-03-17T01:52:41.784Z,76098.71
2019-03-17T01:55:17.829Z,76093.66
2019-03-17T01:57:46.991Z,76099.73
2019-03-17T02:00:16.138Z,76096.69
2019-03-17T02:02:45.358Z,76095.67
2019-03-17T02:05:21.936Z,76097.70
2019-03-17T02:07:46.528Z,76086.57
2019-03-17T02:10:15.774Z,76098.71
2019-03-17T02:12:44.991Z,76090.62
2019-03-17T02:15:14.215Z,76097.70
2019-03-17T02:17:43.412Z,76096.69
2019-03-17T02:20:12.605Z,76093.66
2019-03-17T02:22:41.808Z,76093.66
2019-03-17T02:25:11.004Z,76083.53
2019-03-17T02:27:40.159Z,76087.58
2019-03-17T02:30:09.980Z,76087.58
2019-03-17T02:32:39.104Z,76089.61
2019-03-17T02:35:08.379Z,76081.52
2019-03-17T02:37:37.595Z,76081.52
2019-03-17T02:40:06.900Z,76082.52
2019-03-17T02:42:47.661Z,76080.50
2019-03-17T02:45:17.252Z,76075.44
2019-03-17T02:47:46.447Z,76074.42
2019-03-17T02:50:15.699Z,76070.38
2019-03-17T02:52:44.877Z,76074.42
2019-03-17T02:55:14.111Z,76071.39
2019-03-17T02:57:43.349Z,76071.39
2019-03-17T03:00:13.080Z,76066.33
2019-03-17T03:02:42.826Z,76072.41
2019-03-17T03:05:12.045Z,76071.39
2019-03-17T03:07:41.511Z,76072.41
2019-03-17T03:10:10.794Z,76075.44
2019-03-17T03:12:39.913Z,76066.33
2019-03-17T03:15:09.530Z,76072.41
2019-03-17T03:17:38.697Z,76071.39
2019-03-17T03:20:08.000Z,76075.44
2019-03-17T03:22:37.176Z,76065.31
2019-03-17T03:25:06.389Z,76073.41
2019-03-17T03:27:35.553Z,76065.31
2019-03-17T03:30:05.381Z,76062.28
2019-03-17T03:32:34.608Z,76054.19
2019-03-17T03:35:04.269Z,76062.28
2019-03-17T03:37:33.511Z,76058.23
2019-03-17T03:40:02.653Z,76062.28
2019-03-17T03:42:31.845Z,76064.30
2019-03-17T03:45:00.996Z,76062.28
2019-03-17T03:47:30.222Z,76060.26
2019-03-17T03:49:59.383Z,76061.27
2019-03-17T03:52:28.616Z,76065.31
2019-03-17T03:54:57.744Z,76078.47
2019-03-17T03:57:27.191Z,76083.53
2019-03-17T03:59:56.449Z,76076.45
2019-03-17T04:02:25.615Z,76079.48
2019-03-17T04:04:54.790Z,76076.45
2019-03-17T04:07:24.394Z,76078.47
2019-03-17T04:09:53.706Z,76077.46
2019-03-17T04:12:23.222Z,76074.42
2019-03-17T04:14:54.604Z,76069.37
2019-03-17T04:17:23.884Z,76082.52
2019-03-17T04:19:53.325Z,76088.59
2019-03-17T04:22:22.568Z,76081.52
2019-03-17T04:24:51.768Z,76085.56
2019-03-17T04:27:20.936Z,76074.42
2019-03-17T04:29:50.171Z,76075.44
2019-03-17T04:32:19.448Z,76086.57
2019-03-17T04:34:48.659Z,76076.45
2019-03-17T04:37:18.096Z,76078.47
2019-03-17T04:39:47.532Z,76084.55
2019-03-17T04:42:16.751Z,76078.47
2019-03-17T04:44:45.933Z,76095.67
2019-03-17T04:47:15.181Z,76086.57
2019-03-17T04:49:47.120Z,76092.64
2019-03-17T04:52:16.141Z,76089.61
2019-03-17T04:54:45.504Z,76095.67
2019-03-17T04:57:14.688Z,76113.89
2019-03-17T04:59:44.276Z,76128.06
2019-03-17T05:02:13.862Z,76135.14
2019-03-17T05:04:43.394Z,76129.07
2019-03-17T05:07:13.046Z,76147.28
2019-03-17T05:09:42.265Z,76166.52
2019-03-17T05:12:11.517Z,76183.72
2019-03-17T05:14:40.740Z,76197.88
2019-03-17T05:17:10.003Z,76200.92
2019-03-17T05:19:39.229Z,76214.08
2019-03-17T05:22:08.503Z,76217.11
2019-03-17T05:24:37.688Z,76239.38
2019-03-17T05:27:06.913Z,76234.31
2019-03-17T05:29:40.636Z,76232.30
2019-03-17T05:32:09.864Z,76232.30
2019-03-17T05:34:39.132Z,76240.39
2019-03-17T05:37:08.411Z,76243.42
2019-03-17T05:39:37.629Z,76238.36
2019-03-17T05:42:06.859Z,76241.41
2019-03-17T05:44:36.033Z,76242.41
2019-03-17T05:47:05.278Z,76245.45
2019-03-17T05:49:36.833Z,76242.41
2019-03-17T05:52:06.240Z,76243.42
2019-03-17T05:54:38.545Z,76251.52
2019-03-17T05:57:07.766Z,76262.66
2019-03-17T05:59:37.449Z,76267.71
2019-03-17T06:02:06.631Z,76270.75
2019-03-17T06:04:36.133Z,76281.88
2019-03-17T06:07:18.259Z,76297.06
2019-03-17T06:09:40.165Z,76297.06
2019-03-17T06:12:09.695Z,76297.06
2019-03-17T06:14:38.882Z,76312.24
2019-03-17T06:17:08.061Z,76320.34
2019-03-17T06:19:37.242Z,76322.36
2019-03-17T06:22:08.719Z,76326.41
2019-03-17T06:24:37.935Z,76325.40
2019-03-17T06:27:07.221Z,76333.50
2019-03-17T06:29:36.470Z,76333.50
2019-03-17T06:32:05.723Z,76332.48
2019-03-17T06:34:34.994Z,76332.48
2019-03-17T06:37:04.496Z,76339.56
2019-03-17T06:39:33.704Z,76346.65
2019-03-17T06:42:02.934Z,76353.73
2019-03-17T06:44:32.100Z,76360.82
2019-03-17T06:47:01.402Z,76365.88
2019-03-17T06:49:30.595Z,76380.05
2019-03-17T06:51:59.803Z,76396.23
2019-03-17T06:54:28.967Z,76396.23
2019-03-17T06:56:58.197Z,76397.25
2019-03-17T06:59:27.692Z,76400.29
2019-03-17T07:01:56.895Z,76401.30
2019-03-17T07:04:26.142Z,76407.38
2019-03-17T07:06:55.371Z,76408.38
2019-03-17T07:09:27.647Z,76410.41
2019-03-17T07:11:56.866Z,76418.50
2019-03-17T07:14:26.060Z,76305.16
2019-03-17T07:16:55.245Z,76288.97
2019-03-17T07:19:28.530Z,76286.94
2019-03-17T07:21:57.677Z,76284.92
2019-03-17T07:24:26.844Z,76274.80
2019-03-17T07:26:58.396Z,76246.46
2019-03-17T07:29:27.581Z,76234.31
2019-03-17T07:31:57.060Z,76232.30
2019-03-17T07:34:28.074Z,76220.16
2019-03-17T07:36:57.385Z,76216.10
2019-03-17T07:39:26.600Z,76213.06
2019-03-17T07:41:58.773Z,76218.13
2019-03-17T07:44:27.962Z,76216.10
2019-03-17T07:46:57.372Z,76216.10
2019-03-17T07:49:50.804Z,76212.05
2019-03-17T07:52:21.403Z,76200.92
2019-03-17T07:54:50.889Z,76190.80
2019-03-17T07:57:23.993Z,76180.69
2019-03-17T07:59:56.100Z,76175.63
2019-03-17T08:02:25.369Z,76158.42
2019-03-17T08:04:54.562Z,76176.63
2019-03-17T08:07:24.257Z,76197.88
2019-03-17T08:09:53.410Z,76223.19
2019-03-17T08:12:22.699Z,76238.36
2019-03-17T08:14:51.893Z,76255.57
2019-03-17T08:17:21.370Z,76262.66
2019-03-17T08:19:50.569Z,76262.66
2019-03-17T08:22:19.760Z,76254.56
2019-03-17T08:24:48.976Z,76238.36
2019-03-17T08:27:18.123Z,76242.41
2019-03-17T08:29:47.360Z,76234.31
2019-03-17T08:32:16.516Z,76228.25
2019-03-17T08:34:45.851Z,76228.25
2019-03-17T08:37:17.316Z,76221.16
2019-03-17T08:39:46.881Z,76211.05
2019-03-17T08:42:16.268Z,76199.91
2019-03-17T08:44:45.563Z,76193.84
2019-03-17T08:47:14.875Z,76183.72
2019-03-17T08:49:44.018Z,76171.58
2019-03-17T08:52:11.685Z,76165.50
2019-03-17T08:54:40.801Z,76128.06
2019-03-17T08:57:10.089Z,76106.81
2019-03-17T08:59:39.236Z,76095.67
2019-03-17T09:02:08.726Z,76076.45
2019-03-17T09:04:38.057Z,76070.38
2019-03-17T09:07:07.607Z,76056.21
2019-03-17T09:09:38.913Z,76024.84
2019-03-17T09:12:08.173Z,76002.58
2019-03-17T09:14:37.447Z,75992.46
2019-03-17T09:17:14.281Z,75962.10
2019-03-17T09:19:37.904Z,75934.78
2019-03-17T09:22:07.216Z,75902.40
2019-03-17T09:24:36.545Z,75895.31
2019-03-17T09:27:05.873Z,75890.26
2019-03-17T09:29:35.151Z,75896.33
2019-03-17T09:32:04.425Z,75881.15
2019-03-17T09:34:33.632Z,75867.99
2019-03-17T09:37:03.264Z,75859.91
2019-03-17T09:39:35.039Z,75831.56
2019-03-17T09:42:05.193Z,75807.28
2019-03-17T09:44:34.367Z,75806.27
2019-03-17T09:47:03.626Z,75786.03
2019-03-17T09:49:33.072Z,75774.91
2019-03-17T09:52:02.595Z,75753.66
2019-03-17T09:54:31.855Z,75738.47
2019-03-17T09:57:03.909Z,75715.20
2019-03-17T09:59:33.093Z,75693.95
2019-03-17T10:02:02.609Z,75696.98
2019-03-17T10:04:34.111Z,75679.79
2019-03-17T10:07:03.668Z,75657.53
2019-03-17T10:09:33.816Z,75641.34
2019-03-17T10:12:03.139Z,75620.09
2019-03-17T10:14:32.474Z,75613.01
2019-03-17T10:17:02.008Z,75596.82
2019-03-17T10:19:34.800Z,75589.73
2019-03-17T10:22:04.065Z,75582.66
2019-03-17T10:24:33.292Z,75562.42
2019-03-17T10:27:02.630Z,75545.22
2019-03-17T10:29:31.784Z,75521.95
2019-03-17T10:32:00.945Z,75508.80
2019-03-17T10:34:30.165Z,75507.78
2019-03-17T10:36:59.390Z,75480.47
2019-03-17T10:39:28.547Z,75452.13
2019-03-17T10:41:57.728Z,75416.72
2019-03-17T10:44:27.019Z,75398.52
2019-03-17T10:46:56.324Z,75368.16
2019-03-17T10:49:28.410Z,75347.92
2019-03-17T10:51:57.839Z,75339.83
2019-03-17T10:54:27.291Z,75264.96
2019-03-17T10:56:56.589Z,75210.33
2019-03-17T10:59:27.685Z,75160.76
2019-03-17T11:01:56.849Z,74960.45
2019-03-17T11:04:26.131Z,74883.57
2019-03-17T11:06:55.826Z,74750.04
2019-03-17T11:09:25.929Z,74617.53
2019-03-17T11:11:55.182Z,74549.76
2019-03-17T11:14:24.471Z,74456.70
2019-03-17T11:16:53.744Z,74296.89
2019-03-17T11:19:25.549Z,74207.89
2019-03-17T11:21:54.217Z,74173.50
2019-03-17T11:24:23.455Z,73927.74
2019-03-17T11:26:55.601Z,73694.14
2019-03-17T11:29:23.948Z,73244.16
2019-03-17T11:31:54.637Z,72906.47
2019-03-17T11:34:23.852Z,71976.46
2019-03-17T11:36:53.205Z,71058.83
2019-03-17T11:39:23.432Z,70030.33
2019-03-17T11:41:53.591Z,68401.33
2019-03-17T11:44:23.779Z,64754.28
2019-03-17T11:46:53.910Z,50377.82
2019-03-17T11:49:23.455Z,50389.87
2019-03-17T11:51:53.248Z,50408.96
2019-03-17T11:54:24.305Z,50389.87
2019-03-17T11:56:53.529Z,50400.92
2019-03-17T11:59:23.572Z,50376.82
2019-03-17T12:01:52.936Z,50398.91
2019-03-17T12:04:22.192Z,50384.85
2019-03-17T12:06:53.466Z,50402.93
2019-03-17T12:09:29.074Z,50412.97
2019-03-17T12:11:53.753Z,50382.84
2019-03-17T12:14:22.996Z,50388.87
2019-03-17T12:16:52.303Z,50433.06
2019-03-17T12:19:21.459Z,50425.03
2019-03-17T12:21:50.652Z,50388.87
2019-03-17T12:24:19.845Z,50406.95
2019-03-17T12:26:49.064Z,50396.91
2019-03-17T12:29:18.354Z,50396.91
2019-03-17T12:31:47.584Z,50405.95
2019-03-17T12:34:27.819Z,50399.92
2019-03-17T12:36:47.691Z,50414.98
2019-03-17T12:39:17.147Z,50384.85
2019-03-17T12:41:46.735Z,50371.79
2019-03-17T12:44:19.106Z,50406.95
2019-03-17T12:46:48.406Z,50376.82
2019-03-17T12:49:17.612Z,50376.82
2019-03-17T12:51:46.860Z,50398.91
2019-03-17T12:54:16.028Z,50389.87
2019-03-17T12:56:45.216Z,50399.92
2019-03-17T12:59:14.585Z,50383.85
2019-03-17T13:01:43.849Z,50414.98
2019-03-17T13:04:13.024Z,50396.91
2019-03-17T13:06:42.256Z,50334.64
2019-03-17T13:09:11.673Z,50412.97
2019-03-17T13:11:40.818Z,50405.95
2019-03-17T13:14:12.422Z,50375.81
2019-03-17T13:16:41.660Z,50400.92
2019-03-17T13:19:10.903Z,50385.86
2019-03-17T13:21:40.105Z,50386.86
2019-03-17T13:24:09.255Z,50397.91
2019-03-17T13:26:38.597Z,50383.85
2019-03-17T13:29:07.800Z,50411.97
2019-03-17T13:31:37.263Z,50379.83
2019-03-17T13:34:06.504Z,50396.91
2019-03-17T13:36:35.732Z,50408.96
2019-03-17T13:39:07.028Z,50425.03
2019-03-17T13:41:36.249Z,50405.95
2019-03-17T13:44:05.415Z,50438.08
2019-03-17T13:46:34.904Z,50393.89
2019-03-17T13:49:04.095Z,50373.80
2019-03-17T13:51:33.334Z,50402.93
2019-03-17T13:54:02.519Z,50391.88
2019-03-17T13:56:31.709Z,50399.92
2019-03-17T13:59:06.223Z,50394.89
2019-03-17T14:01:34.250Z,50390.88
2019-03-17T14:04:03.476Z,50401.93
2019-03-17T14:06:33.578Z,50399.92
2019-03-17T14:09:04.496Z,50371.79
2019-03-17T14:11:34.066Z,50372.80
2019-03-17T14:14:03.297Z,50420.00
2019-03-17T14:16:32.459Z,50368.78
2019-03-17T14:19:01.665Z,50396.91
2019-03-17T14:21:30.869Z,50362.75
2019-03-17T14:24:00.043Z,50437.08
2019-03-17T14:26:29.216Z,50377.82
2019-03-17T14:28:58.418Z,50370.79
2019-03-17T14:31:27.601Z,50447.12
2019-03-17T14:33:57.020Z,50377.82
2019-03-17T14:36:26.236Z,50376.82
2019-03-17T14:38:55.410Z,50377.82
2019-03-17T14:41:24.642Z,50411.97
2019-03-17T14:43:53.880Z,50402.93
2019-03-17T14:46:25.157Z,50403.93
2019-03-17T14:48:54.427Z,50388.87
2019-03-17T14:51:23.681Z,50362.75
2019-03-17T14:53:52.804Z,50403.93
2019-03-17T14:56:22.093Z,50387.86
2019-03-17T14:58:51.515Z,50393.89
2019-03-17T15:01:20.750Z,50415.99
2019-03-17T15:03:50.711Z,50358.74
2019-03-17T15:06:20.051Z,50372.80
2019-03-17T15:08:49.277Z,50377.82
2019-03-17T15:11:18.518Z,50406.95
2019-03-17T15:13:47.951Z,50380.84
2019-03-17T15:16:19.530Z,50406.95
2019-03-17T15:18:48.769Z,50341.66
2019-03-17T15:21:17.997Z,50411.97
2019-03-17T15:23:47.312Z,50377.82
2019-03-17T15:26:19.518Z,50354.72
2019-03-17T15:28:49.000Z,50400.92
2019-03-17T15:31:18.301Z,50404.94
2019-03-17T15:36:13.172Z,50377.82
2019-03-17T15:38:42.445Z,50410.96
2019-03-17T15:41:18.367Z,50409.96
2019-03-17T15:43:42.671Z,50410.96
2019-03-17T15:46:11.848Z,50375.81
2019-03-17T15:48:41.146Z,50400.92
2019-03-17T15:51:19.648Z,50376.82
2019-03-17T15:53:42.156Z,50388.87
2019-03-17T15:56:11.420Z,50380.84
2019-03-17T15:58:43.112Z,50373.80
2019-03-17T16:01:15.038Z,50334.64
2019-03-17T16:03:42.593Z,50366.77
2019-03-17T16:06:11.822Z,50400.92
2019-03-17T16:08:40.957Z,50408.96
2019-03-17T16:11:10.212Z,50414.98
2019-03-17T16:13:39.439Z,50364.77
2019-03-17T16:16:08.935Z,50385.86
2019-03-17T16:18:38.678Z,50383.85
2019-03-17T16:21:09.042Z,50395.90
2019-03-17T16:23:38.629Z,50368.78
2019-03-17T16:26:08.322Z,50377.82
2019-03-17T16:28:37.781Z,50380.84
2019-03-17T16:31:07.082Z,50418.00
2019-03-17T16:33:36.275Z,50435.07
2019-03-17T16:36:05.707Z,50408.96
2019-03-17T16:38:35.247Z,50384.85
2019-03-17T16:41:04.462Z,50400.92
2019-03-17T16:43:33.679Z,50394.89
2019-03-17T16:46:03.002Z,50387.86
2019-03-17T16:48:32.164Z,50378.82
2019-03-17T16:51:01.492Z,50362.75
2019-03-17T16:53:30.801Z,50402.93
2019-03-17T16:56:00.116Z,50382.84
2019-03-17T16:58:29.301Z,50402.93
2019-03-17T17:01:01.720Z,50401.93
2019-03-17T17:03:31.033Z,50375.81
2019-03-17T17:06:00.283Z,50389.87
2019-03-17T17:08:29.481Z,50387.86
2019-03-17T17:11:00.599Z,50407.95
2019-03-17T17:13:29.580Z,50398.91
2019-03-17T17:15:58.818Z,50378.82
2019-03-17T17:18:28.961Z,50411.97
2019-03-17T17:20:58.178Z,50377.82
2019-03-17T17:23:27.431Z,50384.85
2019-03-17T17:25:56.699Z,50379.83
2019-03-17T17:28:26.005Z,50402.93
2019-03-17T17:30:55.308Z,50376.82
2019-03-17T17:33:24.435Z,50371.79
2019-03-17T17:35:53.656Z,50385.86
2019-03-17T17:38:22.941Z,50355.73
2019-03-17T17:40:52.092Z,50405.95
2019-03-17T17:43:21.280Z,50397.91
2019-03-17T17:45:50.499Z,50386.86
2019-03-17T17:48:19.693Z,50359.74
2019-03-17T17:50:48.915Z,50391.88
2019-03-17T17:53:18.131Z,50373.80
2019-03-17T17:55:47.356Z,50372.80
2019-03-17T17:58:16.514Z,50374.81
2019-03-17T18:00:46.317Z,50376.82
2019-03-17T18:03:18.342Z,50376.82
2019-03-17T18:05:48.538Z,50396.91
2019-03-17T18:08:18.181Z,50369.79
2019-03-17T18:10:48.642Z,50384.85
2019-03-17T18:13:17.900Z,50372.80
2019-03-17T18:18:16.285Z,50395.90
2019-03-17T18:20:45.622Z,50428.04
2019-03-17T18:23:18.123Z,50385.86
2019-03-17T18:25:45.874Z,50365.77
2019-03-17T18:28:15.076Z,50380.84
2019-03-17T18:30:44.438Z,50379.83
2019-03-17T18:33:13.628Z,50388.87
2019-03-17T18:35:42.867Z,50381.84
2019-03-17T18:38:12.068Z,50418.00
2019-03-17T18:40:42.327Z,50393.89
2019-03-17T18:43:11.773Z,50400.92
2019-03-17T18:45:42.675Z,50388.87
2019-03-17T18:48:12.377Z,50396.91
2019-03-17T18:50:42.062Z,50388.87
2019-03-17T18:53:11.271Z,50388.87
2019-03-17T18:55:40.528Z,50418.00
2019-03-17T18:58:09.760Z,50382.84
2019-03-17T19:00:39.946Z,50373.80
2019-03-17T19:03:09.146Z,50393.89
2019-03-17T19:05:38.348Z,50416.99
2019-03-17T19:08:07.666Z,50384.85
2019-03-17T19:10:36.837Z,50402.93
2019-03-17T19:13:06.203Z,50376.82
2019-03-17T19:15:35.643Z,50368.78
2019-03-17T19:18:04.925Z,50378.82
2019-03-17T19:20:34.174Z,50379.83
2019-03-17T19:23:05.213Z,50390.88
2019-03-17T19:25:34.397Z,50371.79
2019-03-17T19:28:04.385Z,50353.72
2019-03-17T19:30:33.603Z,50368.78
2019-03-17T19:33:03.062Z,50383.85
2019-03-17T19:35:32.361Z,50385.86
2019-03-17T19:38:01.580Z,50370.79
2019-03-17T19:40:31.564Z,50360.75
2019-03-17T19:43:00.761Z,50380.84
2019-03-17T19:45:29.983Z,50374.81
2019-03-17T19:47:59.130Z,50385.86
2019-03-17T19:50:28.357Z,50383.85
2019-03-17T19:52:57.670Z,50371.79
2019-03-17T19:55:26.986Z,50367.78
2019-03-17T19:57:56.099Z,50372.80
2019-03-17T20:00:25.372Z,50389.87
2019-03-17T20:02:54.563Z,50379.83
2019-03-17T20:05:23.944Z,50386.86
2019-03-17T20:07:55.153Z,50374.81
2019-03-17T20:10:24.901Z,50384.85
2019-03-17T20:12:54.110Z,50382.84
2019-03-17T20:15:23.359Z,50364.77
2019-03-17T20:20:21.745Z,50382.84
2019-03-17T20:22:50.914Z,50367.78
2019-03-17T20:25:20.148Z,50350.70
2019-03-17T20:27:49.303Z,50392.89
2019-03-17T20:30:18.483Z,50345.68
2019-03-17T20:32:47.830Z,50401.93
2019-03-17T20:35:20.161Z,50391.88
2019-03-17T20:37:49.434Z,50397.91
2019-03-17T20:40:18.783Z,50419.00
2019-03-17T20:42:48.035Z,50393.89
2019-03-17T20:45:20.160Z,50394.89
2019-03-17T20:47:48.344Z,50387.86
2019-03-17T20:50:17.666Z,50396.91
2019-03-17T20:52:47.368Z,50424.02
2019-03-17T20:55:16.630Z,50447.12
2019-03-17T20:57:45.863Z,50351.71
2019-03-17T21:00:15.314Z,50389.87
2019-03-17T21:02:44.588Z,50407.95
2019-03-17T21:05:14.164Z,50396.91
2019-03-17T21:07:45.012Z,50412.97
2019-03-17T21:10:14.365Z,50384.85
2019-03-17T21:12:43.653Z,50403.93
2019-03-17T21:15:13.691Z,50359.74
2019-03-17T21:17:42.914Z,50372.80
2019-03-17T21:20:13.473Z,50397.91
2019-03-17T21:22:42.698Z,50392.89
2019-03-17T21:25:12.307Z,50400.92
2019-03-17T21:27:42.346Z,50373.80
2019-03-17T21:30:14.576Z,50393.89
2019-03-17T21:32:43.844Z,50375.81
2019-03-17T21:35:13.003Z,50394.89
2019-03-17T21:37:42.173Z,50408.96
2019-03-17T21:40:11.532Z,50435.07
2019-03-17T21:42:40.762Z,50320.57
2019-03-17T21:45:10.264Z,50374.81
2019-03-17T21:47:39.559Z,50396.91
2019-03-17T21:50:11.354Z,50366.77
2019-03-17T21:52:40.973Z,50395.90
2019-03-17T21:55:12.709Z,50365.77
2019-03-17T21:57:42.251Z,50393.89
2019-03-17T22:00:13.913Z,50347.69
2019-03-17T22:02:43.577Z,50398.91
2019-03-17T22:05:13.948Z,50384.85
2019-03-17T22:07:49.557Z,50384.85
2019-03-17T22:10:15.128Z,50398.91
2019-03-17T22:12:44.350Z,50399.92
2019-03-17T22:15:13.463Z,50386.86
2019-03-17T22:17:42.638Z,50368.78
2019-03-17T22:20:11.897Z,50344.68
2019-03-17T22:22:41.335Z,50386.86
2019-03-17T22:25:10.635Z,50356.73
2019-03-17T22:27:39.793Z,50418.00
2019-03-17T22:30:25.036Z,50376.82
2019-03-17T22:33:13.990Z,50388.87
2019-03-17T22:36:02.282Z,50385.86
2019-03-17T22:38:49.746Z,50356.73
2019-03-17T22:41:35.603Z,50343.68
2019-03-17T22:44:25.042Z,50384.85
2019-03-17T22:47:09.006Z,50353.72
2019-03-17T22:49:38.409Z,50383.85
2019-03-17T22:52:27.689Z,50381.84
2019-03-17T22:55:18.195Z,50368.78
2019-03-17T22:58:03.900Z,50382.84
2019-03-17T23:00:52.970Z,50332.62
2019-03-17T23:03:42.009Z,50390.88
2019-03-17T23:06:25.591Z,50369.79
2019-03-17T23:09:14.125Z,50352.71
2019-03-17T23:12:04.770Z,50396.91
2019-03-17T23:14:45.661Z,50368.78
2019-03-17T23:17:33.095Z,50423.02
2019-03-17T23:20:17.343Z,50400.92
2019-03-17T23:23:10.910Z,50374.81
2019-03-17T23:26:01.558Z,50387.86
2019-03-17T23:28:48.454Z,50392.89
2019-03-17T23:31:35.348Z,50396.91
2019-03-17T23:34:21.471Z,50390.88
2019-03-17T23:37:08.236Z,50350.70
2019-03-17T23:39:37.355Z,50376.82
2019-03-17T23:42:22.764Z,50397.91
2019-03-17T23:45:10.454Z,50394.89
2019-03-17T23:48:06.323Z,50382.84
2019-03-17T23:50:53.532Z,50359.74
2019-03-17T23:53:45.675Z,50376.82
2019-03-17T23:56:47.376Z,50383.85
2019-03-17T23:59:20.204Z,50409.96
